sensor_id;sensor_type;location;lat;lon;timestamp;P1;durP1;ratioP1;P2;durP2;ratioP2
29002;SDS011;16102;57.138;-2.118;2022-10-26T00:01:06;4.57;;;1.05;;
29002;SDS011;16102;57.138;-2.118;2022-10-26T00:03:38;3.47;;;0.82;;
29002;SDS011;16102;57.138;-2.118;2022-10-26T00:06:08;5.13;;;1.30;;
29002;SDS011;16102;57.138;-2.118;2022-10-26T00:08:37;11.38;;;2.13;;
29002;SDS011;16102;57.138;-2.118;2022-10-26T00:11:04;6.20;;;1.17;;
29002;SDS011;16102;57.138;-2.118;2022-10-26T00:13:32;6.13;;;1.75;;
29002;SDS011;16102;57.138;-2.118;2022-10-26T00:16:00;15.82;;;3.10;;
29002;SDS011;16102;57.138;-2.118;2022-10-26T00:18:27;5.72;;;1.27;;
29002;SDS011;16102;57.138;-2.118;2022-10-26T00:20:54;9.73;;;2.25;;
29002;SDS011;16102;57.138;-2.118;2022-10-26T00:23:27;10.90;;;2.53;;
29002;SDS011;16102;57.138;-2.118;2022-10-26T00:25:55;16.38;;;2.85;;
29002;SDS011;16102;57.138;-2.118;2022-10-26T00:28:22;8.88;;;1.67;;
29002;SDS011;16102;57.138;-2.118;2022-10-26T00:30:50;6.28;;;2.20;;
29002;SDS011;16102;57.138;-2.118;2022-10-26T00:33:17;10.43;;;1.60;;
29002;SDS011;16102;57.138;-2.118;2022-10-26T00:35:48;5.68;;;1.55;;
29002;SDS011;16102;57.138;-2.118;2022-10-26T00:38:19;4.32;;;1.45;;
29002;SDS011;16102;57.138;-2.118;2022-10-26T00:40:46;4.05;;;1.20;;
29002;SDS011;16102;57.138;-2.118;2022-10-26T00:43:14;5.78;;;1.30;;
29002;SDS011;16102;57.138;-2.118;2022-10-26T00:46:02;2.55;;;1.40;;
29002;SDS011;16102;57.138;-2.118;2022-10-26T00:48:44;4.22;;;1.10;;
29002;SDS011;16102;57.138;-2.118;2022-10-26T00:51:17;5.68;;;1.52;;
29002;SDS011;16102;57.138;-2.118;2022-10-26T00:53:50;15.07;;;2.57;;
29002;SDS011;16102;57.138;-2.118;2022-10-26T00:56:18;5.55;;;1.75;;
29002;SDS011;16102;57.138;-2.118;2022-10-26T00:58:46;3.67;;;1.83;;
29002;SDS011;16102;57.138;-2.118;2022-10-26T01:01:13;7.00;;;1.35;;
29002;SDS011;16102;57.138;-2.118;2022-10-26T01:03:40;6.20;;;1.15;;
29002;SDS011;16102;57.138;-2.118;2022-10-26T01:06:09;5.25;;;1.35;;
29002;SDS011;16102;57.138;-2.118;2022-10-26T01:08:37;3.40;;;1.17;;
29002;SDS011;16102;57.138;-2.118;2022-10-26T01:11:05;6.57;;;1.67;;
29002;SDS011;16102;57.138;-2.118;2022-10-26T01:13:32;4.72;;;1.45;;
29002;SDS011;16102;57.138;-2.118;2022-10-26T01:30:56;8.02;;;1.55;;
29002;SDS011;16102;57.138;-2.118;2022-10-26T01:33:13;6.03;;;1.38;;
29002;SDS011;16102;57.138;-2.118;2022-10-26T01:35:52;4.15;;;1.85;;
29002;SDS011;16102;57.138;-2.118;2022-10-26T01:38:29;11.52;;;1.95;;
29002;SDS011;16102;57.138;-2.118;2022-10-26T01:41:16;10.27;;;1.75;;
29002;SDS011;16102;57.138;-2.118;2022-10-26T01:44:00;8.73;;;1.08;;
29002;SDS011;16102;57.138;-2.118;2022-10-26T01:46:31;6.13;;;1.45;;
29002;SDS011;16102;57.138;-2.118;2022-10-26T01:49:03;7.40;;;2.28;;
29002;SDS011;16102;57.138;-2.118;2022-10-26T01:51:33;3.78;;;1.20;;
29002;SDS011;16102;57.138;-2.118;2022-10-26T01:54:01;5.10;;;1.30;;
29002;SDS011;16102;57.138;-2.118;2022-10-26T01:56:28;5.70;;;1.20;;
29002;SDS011;16102;57.138;-2.118;2022-10-26T01:59:02;6.07;;;1.40;;
29002;SDS011;16102;57.138;-2.118;2022-10-26T02:07:39;6.32;;;1.75;;
29002;SDS011;16102;57.138;-2.118;2022-10-26T02:10:31;4.07;;;1.20;;
29002;SDS011;16102;57.138;-2.118;2022-10-26T02:16:47;4.75;;;2.50;;
29002;SDS011;16102;57.138;-2.118;2022-10-26T02:19:44;9.20;;;2.33;;
29002;SDS011;16102;57.138;-2.118;2022-10-26T02:22:23;4.63;;;1.30;;
29002;SDS011;16102;57.138;-2.118;2022-10-26T02:25:04;3.75;;;1.00;;
29002;SDS011;16102;57.138;-2.118;2022-10-26T02:27:37;6.22;;;2.00;;
29002;SDS011;16102;57.138;-2.118;2022-10-26T02:30:07;6.75;;;1.80;;
29002;SDS011;16102;57.138;-2.118;2022-10-26T02:32:36;8.07;;;2.20;;
29002;SDS011;16102;57.138;-2.118;2022-10-26T02:35:08;7.53;;;1.75;;
29002;SDS011;16102;57.138;-2.118;2022-10-26T02:37:37;6.35;;;1.60;;
29002;SDS011;16102;57.138;-2.118;2022-10-26T02:40:06;5.72;;;1.58;;
29002;SDS011;16102;57.138;-2.118;2022-10-26T02:42:38;5.80;;;1.17;;
29002;SDS011;16102;57.138;-2.118;2022-10-26T02:45:08;9.15;;;2.45;;
29002;SDS011;16102;57.138;-2.118;2022-10-26T02:47:39;8.88;;;2.08;;
29002;SDS011;16102;57.138;-2.118;2022-10-26T02:50:06;14.05;;;1.65;;
29002;SDS011;16102;57.138;-2.118;2022-10-26T02:57:50;5.28;;;1.27;;
29002;SDS011;16102;57.138;-2.118;2022-10-26T03:00:21;7.22;;;1.85;;
29002;SDS011;16102;57.138;-2.118;2022-10-26T03:02:52;10.40;;;1.50;;
29002;SDS011;16102;57.138;-2.118;2022-10-26T03:05:26;5.15;;;1.38;;
29002;SDS011;16102;57.138;-2.118;2022-10-26T03:07:54;4.72;;;1.42;;
29002;SDS011;16102;57.138;-2.118;2022-10-26T03:10:22;6.50;;;1.20;;
29002;SDS011;16102;57.138;-2.118;2022-10-26T03:12:49;4.15;;;1.33;;
29002;SDS011;16102;57.138;-2.118;2022-10-26T03:15:17;9.20;;;1.60;;
29002;SDS011;16102;57.138;-2.118;2022-10-26T03:17:44;8.68;;;1.50;;
29002;SDS011;16102;57.138;-2.118;2022-10-26T03:20:12;13.98;;;1.80;;
29002;SDS011;16102;57.138;-2.118;2022-10-26T03:22:39;12.02;;;3.42;;
29002;SDS011;16102;57.138;-2.118;2022-10-26T03:25:06;7.63;;;1.77;;
29002;SDS011;16102;57.138;-2.118;2022-10-26T03:27:33;7.97;;;1.58;;
29002;SDS011;16102;57.138;-2.118;2022-10-26T03:30:00;6.07;;;1.38;;
29002;SDS011;16102;57.138;-2.118;2022-10-26T03:32:27;4.93;;;1.25;;
29002;SDS011;16102;57.138;-2.118;2022-10-26T03:34:54;5.40;;;1.63;;
29002;SDS011;16102;57.138;-2.118;2022-10-26T03:37:21;6.38;;;1.45;;
29002;SDS011;16102;57.138;-2.118;2022-10-26T03:39:49;6.93;;;1.17;;
29002;SDS011;16102;57.138;-2.118;2022-10-26T03:42:15;8.48;;;1.70;;
29002;SDS011;16102;57.138;-2.118;2022-10-26T03:44:42;5.35;;;1.30;;
29002;SDS011;16102;57.138;-2.118;2022-10-26T03:47:09;4.68;;;1.10;;
29002;SDS011;16102;57.138;-2.118;2022-10-26T03:49:36;6.63;;;1.23;;
29002;SDS011;16102;57.138;-2.118;2022-10-26T03:52:03;6.53;;;1.60;;
29002;SDS011;16102;57.138;-2.118;2022-10-26T03:54:30;5.03;;;1.35;;
29002;SDS011;16102;57.138;-2.118;2022-10-26T03:56:57;10.80;;;2.50;;
29002;SDS011;16102;57.138;-2.118;2022-10-26T03:59:24;7.63;;;1.25;;
29002;SDS011;16102;57.138;-2.118;2022-10-26T04:01:51;5.30;;;1.70;;
29002;SDS011;16102;57.138;-2.118;2022-10-26T04:04:23;9.50;;;2.47;;
29002;SDS011;16102;57.138;-2.118;2022-10-26T04:06:51;7.80;;;1.33;;
29002;SDS011;16102;57.138;-2.118;2022-10-26T04:09:18;5.93;;;1.60;;
29002;SDS011;16102;57.138;-2.118;2022-10-26T04:11:45;6.90;;;1.95;;
29002;SDS011;16102;57.138;-2.118;2022-10-26T04:14:12;13.35;;;1.60;;
29002;SDS011;16102;57.138;-2.118;2022-10-26T04:16:38;9.35;;;1.75;;
29002;SDS011;16102;57.138;-2.118;2022-10-26T04:19:05;7.65;;;1.70;;
29002;SDS011;16102;57.138;-2.118;2022-10-26T04:21:32;8.65;;;1.65;;
29002;SDS011;16102;57.138;-2.118;2022-10-26T04:24:00;13.82;;;2.47;;
29002;SDS011;16102;57.138;-2.118;2022-10-26T04:26:28;9.27;;;2.13;;
29002;SDS011;16102;57.138;-2.118;2022-10-26T04:28:55;12.20;;;1.98;;
29002;SDS011;16102;57.138;-2.118;2022-10-26T04:31:22;9.98;;;1.85;;
29002;SDS011;16102;57.138;-2.118;2022-10-26T04:33:49;8.45;;;2.15;;
29002;SDS011;16102;57.138;-2.118;2022-10-26T04:36:16;5.10;;;1.63;;
29002;SDS011;16102;57.138;-2.118;2022-10-26T04:38:43;9.15;;;1.88;;
29002;SDS011;16102;57.138;-2.118;2022-10-26T04:41:10;8.18;;;1.58;;
29002;SDS011;16102;57.138;-2.118;2022-10-26T04:43:37;10.60;;;2.40;;
29002;SDS011;16102;57.138;-2.118;2022-10-26T04:46:04;11.88;;;3.45;;
29002;SDS011;16102;57.138;-2.118;2022-10-26T04:48:31;7.75;;;1.50;;
29002;SDS011;16102;57.138;-2.118;2022-10-26T04:50:58;8.82;;;1.63;;
29002;SDS011;16102;57.138;-2.118;2022-10-26T04:53:26;9.63;;;2.00;;
29002;SDS011;16102;57.138;-2.118;2022-10-26T04:55:57;11.38;;;1.98;;
29002;SDS011;16102;57.138;-2.118;2022-10-26T04:58:25;8.23;;;1.73;;
29002;SDS011;16102;57.138;-2.118;2022-10-26T05:00:53;11.57;;;1.92;;
29002;SDS011;16102;57.138;-2.118;2022-10-26T05:03:20;9.00;;;1.92;;
29002;SDS011;16102;57.138;-2.118;2022-10-26T05:05:47;11.23;;;1.88;;
29002;SDS011;16102;57.138;-2.118;2022-10-26T05:08:14;12.82;;;3.78;;
29002;SDS011;16102;57.138;-2.118;2022-10-26T05:10:42;9.80;;;2.17;;
29002;SDS011;16102;57.138;-2.118;2022-10-26T05:13:13;9.93;;;1.85;;
29002;SDS011;16102;57.138;-2.118;2022-10-26T05:15:40;9.95;;;3.03;;
29002;SDS011;16102;57.138;-2.118;2022-10-26T05:18:07;11.57;;;2.05;;
29002;SDS011;16102;57.138;-2.118;2022-10-26T05:20:34;13.70;;;2.47;;
29002;SDS011;16102;57.138;-2.118;2022-10-26T05:23:03;8.60;;;1.90;;
29002;SDS011;16102;57.138;-2.118;2022-10-26T05:25:33;9.77;;;2.63;;
29002;SDS011;16102;57.138;-2.118;2022-10-26T05:28:03;17.88;;;3.03;;
29002;SDS011;16102;57.138;-2.118;2022-10-26T05:30:33;13.95;;;3.63;;
29002;SDS011;16102;57.138;-2.118;2022-10-26T05:33:00;12.13;;;2.85;;
29002;SDS011;16102;57.138;-2.118;2022-10-26T05:35:28;7.80;;;1.63;;
29002;SDS011;16102;57.138;-2.118;2022-10-26T05:37:56;6.68;;;2.38;;
29002;SDS011;16102;57.138;-2.118;2022-10-26T05:40:24;7.35;;;1.83;;
29002;SDS011;16102;57.138;-2.118;2022-10-26T05:42:52;11.05;;;2.30;;
29002;SDS011;16102;57.138;-2.118;2022-10-26T05:45:26;10.68;;;2.40;;
29002;SDS011;16102;57.138;-2.118;2022-10-26T05:47:53;14.10;;;2.33;;
29002;SDS011;16102;57.138;-2.118;2022-10-26T05:50:26;16.20;;;2.30;;
29002;SDS011;16102;57.138;-2.118;2022-10-26T05:52:53;12.75;;;2.35;;
29002;SDS011;16102;57.138;-2.118;2022-10-26T05:55:21;7.43;;;1.63;;
29002;SDS011;16102;57.138;-2.118;2022-10-26T05:57:48;6.50;;;1.83;;
29002;SDS011;16102;57.138;-2.118;2022-10-26T06:00:17;11.02;;;2.55;;
29002;SDS011;16102;57.138;-2.118;2022-10-26T06:05:57;11.93;;;2.58;;
29002;SDS011;16102;57.138;-2.118;2022-10-26T06:08:30;11.93;;;2.45;;
29002;SDS011;16102;57.138;-2.118;2022-10-26T06:10:57;12.38;;;2.17;;
29002;SDS011;16102;57.138;-2.118;2022-10-26T06:13:25;14.85;;;2.78;;
29002;SDS011;16102;57.138;-2.118;2022-10-26T06:16:05;14.25;;;2.60;;
29002;SDS011;16102;57.138;-2.118;2022-10-26T06:24:36;9.35;;;1.95;;
29002;SDS011;16102;57.138;-2.118;2022-10-26T06:30:11;11.07;;;1.75;;
29002;SDS011;16102;57.138;-2.118;2022-10-26T06:32:39;11.68;;;2.88;;
29002;SDS011;16102;57.138;-2.118;2022-10-26T06:35:13;9.57;;;2.00;;
29002;SDS011;16102;57.138;-2.118;2022-10-26T06:38:12;15.32;;;2.38;;
29002;SDS011;16102;57.138;-2.118;2022-10-26T06:40:42;12.95;;;2.78;;
29002;SDS011;16102;57.138;-2.118;2022-10-26T06:43:21;7.47;;;2.65;;
29002;SDS011;16102;57.138;-2.118;2022-10-26T06:45:53;10.73;;;3.00;;
29002;SDS011;16102;57.138;-2.118;2022-10-26T06:48:32;15.73;;;2.97;;
29002;SDS011;16102;57.138;-2.118;2022-10-26T06:51:10;11.15;;;2.92;;
29002;SDS011;16102;57.138;-2.118;2022-10-26T06:53:42;8.75;;;2.03;;
29002;SDS011;16102;57.138;-2.118;2022-10-26T06:56:33;16.13;;;3.95;;
29002;SDS011;16102;57.138;-2.118;2022-10-26T06:59:08;17.92;;;4.07;;
29002;SDS011;16102;57.138;-2.118;2022-10-26T07:02:07;13.82;;;3.00;;
29002;SDS011;16102;57.138;-2.118;2022-10-26T07:04:35;17.13;;;4.47;;
29002;SDS011;16102;57.138;-2.118;2022-10-26T07:07:02;23.95;;;4.38;;
29002;SDS011;16102;57.138;-2.118;2022-10-26T07:09:29;21.42;;;4.57;;
29002;SDS011;16102;57.138;-2.118;2022-10-26T07:11:56;26.67;;;5.90;;
29002;SDS011;16102;57.138;-2.118;2022-10-26T07:14:23;35.45;;;5.00;;
29002;SDS011;16102;57.138;-2.118;2022-10-26T07:16:50;11.05;;;2.95;;
29002;SDS011;16102;57.138;-2.118;2022-10-26T07:19:17;9.60;;;2.70;;
29002;SDS011;16102;57.138;-2.118;2022-10-26T07:21:44;7.22;;;2.20;;
29002;SDS011;16102;57.138;-2.118;2022-10-26T07:24:11;20.90;;;5.18;;
29002;SDS011;16102;57.138;-2.118;2022-10-26T07:26:38;11.40;;;2.70;;
29002;SDS011;16102;57.138;-2.118;2022-10-26T07:29:05;19.83;;;3.65;;
29002;SDS011;16102;57.138;-2.118;2022-10-26T07:31:32;12.10;;;2.92;;
29002;SDS011;16102;57.138;-2.118;2022-10-26T07:33:59;16.35;;;3.70;;
29002;SDS011;16102;57.138;-2.118;2022-10-26T07:36:29;18.75;;;4.53;;
29002;SDS011;16102;57.138;-2.118;2022-10-26T07:38:56;15.63;;;3.63;;
29002;SDS011;16102;57.138;-2.118;2022-10-26T07:41:23;18.05;;;3.88;;
29002;SDS011;16102;57.138;-2.118;2022-10-26T07:43:50;9.90;;;2.75;;
29002;SDS011;16102;57.138;-2.118;2022-10-26T07:46:17;9.88;;;3.47;;
29002;SDS011;16102;57.138;-2.118;2022-10-26T07:48:44;9.13;;;2.33;;
29002;SDS011;16102;57.138;-2.118;2022-10-26T07:51:11;10.98;;;2.42;;
29002;SDS011;16102;57.138;-2.118;2022-10-26T07:53:38;14.93;;;3.13;;
29002;SDS011;16102;57.138;-2.118;2022-10-26T07:56:06;19.58;;;3.95;;
29002;SDS011;16102;57.138;-2.118;2022-10-26T07:58:33;15.80;;;3.10;;
29002;SDS011;16102;57.138;-2.118;2022-10-26T08:01:07;12.07;;;3.10;;
29002;SDS011;16102;57.138;-2.118;2022-10-26T08:06:04;27.85;;;5.68;;
29002;SDS011;16102;57.138;-2.118;2022-10-26T08:08:32;23.63;;;4.57;;
29002;SDS011;16102;57.138;-2.118;2022-10-26T08:10:59;45.15;;;8.57;;
29002;SDS011;16102;57.138;-2.118;2022-10-26T08:13:27;35.97;;;8.05;;
29002;SDS011;16102;57.138;-2.118;2022-10-26T08:15:58;45.13;;;7.35;;
29002;SDS011;16102;57.138;-2.118;2022-10-26T08:18:26;31.25;;;6.03;;
29002;SDS011;16102;57.138;-2.118;2022-10-26T08:20:53;21.60;;;4.50;;
29002;SDS011;16102;57.138;-2.118;2022-10-26T08:23:35;22.05;;;5.63;;
29002;SDS011;16102;57.138;-2.118;2022-10-26T08:26:02;36.95;;;6.53;;
29002;SDS011;16102;57.138;-2.118;2022-10-26T08:28:30;18.90;;;4.20;;
29002;SDS011;16102;57.138;-2.118;2022-10-26T08:30:57;31.83;;;5.90;;
29002;SDS011;16102;57.138;-2.118;2022-10-26T08:33:24;24.77;;;5.28;;
29002;SDS011;16102;57.138;-2.118;2022-10-26T08:35:55;27.48;;;6.55;;
29002;SDS011;16102;57.138;-2.118;2022-10-26T08:38:23;36.28;;;6.75;;
29002;SDS011;16102;57.138;-2.118;2022-10-26T08:40:50;35.15;;;7.20;;
29002;SDS011;16102;57.138;-2.118;2022-10-26T08:43:53;31.23;;;6.78;;
29002;SDS011;16102;57.138;-2.118;2022-10-26T08:46:22;38.20;;;7.43;;
29002;SDS011;16102;57.138;-2.118;2022-10-26T08:48:59;30.33;;;5.47;;
29002;SDS011;16102;57.138;-2.118;2022-10-26T08:51:31;28.73;;;5.90;;
29002;SDS011;16102;57.138;-2.118;2022-10-26T08:54:04;31.73;;;5.53;;
29002;SDS011;16102;57.138;-2.118;2022-10-26T08:56:40;21.08;;;4.68;;
29002;SDS011;16102;57.138;-2.118;2022-10-26T09:02:01;24.60;;;4.43;;
29002;SDS011;16102;57.138;-2.118;2022-10-26T09:04:28;28.88;;;4.43;;
29002;SDS011;16102;57.138;-2.118;2022-10-26T09:18:06;24.98;;;5.13;;
29002;SDS011;16102;57.138;-2.118;2022-10-26T09:26:45;23.38;;;4.55;;
29002;SDS011;16102;57.138;-2.118;2022-10-26T09:29:14;23.27;;;4.95;;
29002;SDS011;16102;57.138;-2.118;2022-10-26T09:31:43;34.97;;;5.97;;
29002;SDS011;16102;57.138;-2.118;2022-10-26T09:34:21;29.95;;;5.68;;
29002;SDS011;16102;57.138;-2.118;2022-10-26T09:36:56;38.58;;;6.57;;
29002;SDS011;16102;57.138;-2.118;2022-10-26T09:39:35;21.80;;;5.20;;
29002;SDS011;16102;57.138;-2.118;2022-10-26T09:44:43;25.35;;;5.70;;
29002;SDS011;16102;57.138;-2.118;2022-10-26T09:47:32;28.25;;;6.40;;
29002;SDS011;16102;57.138;-2.118;2022-10-26T09:52:56;22.55;;;5.25;;
29002;SDS011;16102;57.138;-2.118;2022-10-26T09:55:23;17.65;;;4.10;;
29002;SDS011;16102;57.138;-2.118;2022-10-26T09:57:51;22.80;;;4.63;;
29002;SDS011;16102;57.138;-2.118;2022-10-26T10:00:24;20.90;;;4.07;;
29002;SDS011;16102;57.138;-2.118;2022-10-26T10:02:55;15.13;;;4.03;;
29002;SDS011;16102;57.138;-2.118;2022-10-26T10:05:24;12.23;;;3.17;;
29002;SDS011;16102;57.138;-2.118;2022-10-26T10:08:17;13.30;;;2.83;;
29002;SDS011;16102;57.138;-2.118;2022-10-26T10:11:02;18.60;;;3.50;;
29002;SDS011;16102;57.138;-2.118;2022-10-26T10:13:33;10.68;;;3.10;;
29002;SDS011;16102;57.138;-2.118;2022-10-26T10:18:50;15.70;;;4.32;;
29002;SDS011;16102;57.138;-2.118;2022-10-26T10:21:38;32.53;;;5.55;;
29002;SDS011;16102;57.138;-2.118;2022-10-26T10:24:23;16.83;;;3.53;;
29002;SDS011;16102;57.138;-2.118;2022-10-26T10:26:58;22.00;;;4.43;;
29002;SDS011;16102;57.138;-2.118;2022-10-26T10:29:28;15.25;;;3.53;;
29002;SDS011;16102;57.138;-2.118;2022-10-26T10:32:01;25.25;;;5.25;;
29002;SDS011;16102;57.138;-2.118;2022-10-26T10:34:29;32.35;;;5.22;;
29002;SDS011;16102;57.138;-2.118;2022-10-26T10:36:58;19.83;;;5.25;;
29002;SDS011;16102;57.138;-2.118;2022-10-26T10:39:34;22.67;;;5.07;;
29002;SDS011;16102;57.138;-2.118;2022-10-26T10:42:19;15.13;;;3.42;;
29002;SDS011;16102;57.138;-2.118;2022-10-26T10:44:50;24.30;;;3.97;;
29002;SDS011;16102;57.138;-2.118;2022-10-26T10:47:26;23.92;;;5.32;;
29002;SDS011;16102;57.138;-2.118;2022-10-26T10:49:57;23.33;;;5.65;;
29002;SDS011;16102;57.138;-2.118;2022-10-26T10:52:37;21.08;;;3.72;;
29002;SDS011;16102;57.138;-2.118;2022-10-26T10:57:54;23.95;;;3.90;;
29002;SDS011;16102;57.138;-2.118;2022-10-26T11:00:29;16.95;;;3.60;;
29002;SDS011;16102;57.138;-2.118;2022-10-26T11:03:04;8.68;;;2.20;;
29002;SDS011;16102;57.138;-2.118;2022-10-26T11:08:34;4.22;;;1.13;;
29002;SDS011;16102;57.138;-2.118;2022-10-26T11:11:26;4.15;;;1.30;;
29002;SDS011;16102;57.138;-2.118;2022-10-26T11:16:41;0.98;;;0.57;;
29002;SDS011;16102;57.138;-2.118;2022-10-26T11:21:53;1.85;;;0.52;;
29002;SDS011;16102;57.138;-2.118;2022-10-26T11:26:58;1.80;;;0.52;;
29002;SDS011;16102;57.138;-2.118;2022-10-26T11:29:59;1.42;;;0.50;;
29002;SDS011;16102;57.138;-2.118;2022-10-26T11:41:18;0.65;;;0.30;;
29002;SDS011;16102;57.138;-2.118;2022-10-26T11:44:04;1.05;;;0.88;;
29002;SDS011;16102;57.138;-2.118;2022-10-26T11:46:49;0.20;;;0.10;;
29002;SDS011;16102;57.138;-2.118;2022-10-26T11:49:41;0.77;;;0.30;;
29002;SDS011;16102;57.138;-2.118;2022-10-26T11:52:24;0.85;;;0.38;;
29002;SDS011;16102;57.138;-2.118;2022-10-26T11:54:58;0.63;;;0.13;;
29002;SDS011;16102;57.138;-2.118;2022-10-26T11:57:33;1.10;;;0.20;;
29002;SDS011;16102;57.138;-2.118;2022-10-26T12:00:07;0.50;;;0.20;;
29002;SDS011;16102;57.138;-2.118;2022-10-26T12:02:41;0.17;;;0.10;;
29002;SDS011;16102;57.138;-2.118;2022-10-26T12:07:46;0.73;;;0.17;;
29002;SDS011;16102;57.138;-2.118;2022-10-26T12:10:29;3.03;;;0.32;;
29002;SDS011;16102;57.138;-2.118;2022-10-26T12:18:42;4.53;;;1.10;;
29002;SDS011;16102;57.138;-2.118;2022-10-26T12:21:28;6.95;;;1.73;;
29002;SDS011;16102;57.138;-2.118;2022-10-26T12:33:59;4.35;;;0.70;;
29002;SDS011;16102;57.138;-2.118;2022-10-26T12:39:28;4.22;;;0.90;;
29002;SDS011;16102;57.138;-2.118;2022-10-26T12:44:31;7.35;;;1.25;;
29002;SDS011;16102;57.138;-2.118;2022-10-26T12:47:08;2.25;;;0.60;;
29002;SDS011;16102;57.138;-2.118;2022-10-26T12:52:26;2.78;;;0.80;;
29002;SDS011;16102;57.138;-2.118;2022-10-26T12:57:59;2.33;;;1.15;;
29002;SDS011;16102;57.138;-2.118;2022-10-26T13:00:25;7.35;;;1.38;;
29002;SDS011;16102;57.138;-2.118;2022-10-26T13:02:58;7.10;;;1.38;;
29002;SDS011;16102;57.138;-2.118;2022-10-26T13:05:57;4.57;;;0.98;;
29002;SDS011;16102;57.138;-2.118;2022-10-26T13:08:45;5.47;;;1.50;;
29002;SDS011;16102;57.138;-2.118;2022-10-26T13:11:17;2.30;;;0.65;;
29002;SDS011;16102;57.138;-2.118;2022-10-26T13:13:54;6.07;;;1.35;;
29002;SDS011;16102;57.138;-2.118;2022-10-26T13:16:27;8.35;;;1.27;;
29002;SDS011;16102;57.138;-2.118;2022-10-26T13:18:55;4.63;;;1.45;;
29002;SDS011;16102;57.138;-2.118;2022-10-26T13:21:23;4.95;;;1.20;;
29002;SDS011;16102;57.138;-2.118;2022-10-26T13:23:55;7.95;;;1.52;;
29002;SDS011;16102;57.138;-2.118;2022-10-26T13:26:28;6.10;;;1.67;;
29002;SDS011;16102;57.138;-2.118;2022-10-26T13:29:00;8.23;;;1.73;;
29002;SDS011;16102;57.138;-2.118;2022-10-26T13:34:08;12.60;;;2.83;;
29002;SDS011;16102;57.138;-2.118;2022-10-26T13:36:44;4.72;;;1.05;;
29002;SDS011;16102;57.138;-2.118;2022-10-26T13:41:46;11.75;;;2.10;;
29002;SDS011;16102;57.138;-2.118;2022-10-26T13:47:24;14.15;;;2.95;;
29002;SDS011;16102;57.138;-2.118;2022-10-26T13:50:14;11.73;;;3.50;;
29002;SDS011;16102;57.138;-2.118;2022-10-26T13:52:46;8.55;;;1.88;;
29002;SDS011;16102;57.138;-2.118;2022-10-26T13:55:25;16.08;;;5.45;;
29002;SDS011;16102;57.138;-2.118;2022-10-26T14:00:27;10.55;;;4.22;;
29002;SDS011;16102;57.138;-2.118;2022-10-26T14:02:54;10.32;;;3.13;;
29002;SDS011;16102;57.138;-2.118;2022-10-26T14:05:21;17.70;;;4.68;;
29002;SDS011;16102;57.138;-2.118;2022-10-26T14:07:53;12.43;;;2.45;;
29002;SDS011;16102;57.138;-2.118;2022-10-26T14:10:24;10.55;;;2.60;;
29002;SDS011;16102;57.138;-2.118;2022-10-26T14:13:07;12.05;;;4.43;;
29002;SDS011;16102;57.138;-2.118;2022-10-26T14:15:40;7.68;;;2.60;;
29002;SDS011;16102;57.138;-2.118;2022-10-26T14:18:28;9.35;;;2.50;;
29002;SDS011;16102;57.138;-2.118;2022-10-26T14:21:00;9.35;;;3.08;;
29002;SDS011;16102;57.138;-2.118;2022-10-26T14:26:01;10.63;;;2.50;;
29002;SDS011;16102;57.138;-2.118;2022-10-26T14:28:31;11.35;;;2.50;;
29002;SDS011;16102;57.138;-2.118;2022-10-26T14:31:10;12.00;;;3.45;;
29002;SDS011;16102;57.138;-2.118;2022-10-26T14:33:44;10.32;;;2.90;;
29002;SDS011;16102;57.138;-2.118;2022-10-26T14:36:11;14.15;;;3.17;;
29002;SDS011;16102;57.138;-2.118;2022-10-26T14:38:43;12.48;;;3.13;;
29002;SDS011;16102;57.138;-2.118;2022-10-26T14:41:13;8.02;;;2.78;;
29002;SDS011;16102;57.138;-2.118;2022-10-26T14:43:43;15.48;;;3.33;;
29002;SDS011;16102;57.138;-2.118;2022-10-26T14:46:14;10.05;;;3.42;;
29002;SDS011;16102;57.138;-2.118;2022-10-26T14:48:49;7.68;;;1.83;;
29002;SDS011;16102;57.138;-2.118;2022-10-26T14:51:24;8.35;;;2.20;;
29002;SDS011;16102;57.138;-2.118;2022-10-26T14:53:53;9.90;;;2.40;;
29002;SDS011;16102;57.138;-2.118;2022-10-26T14:59:09;8.50;;;2.28;;
29002;SDS011;16102;57.138;-2.118;2022-10-26T15:04:41;10.27;;;3.17;;
29002;SDS011;16102;57.138;-2.118;2022-10-26T15:07:33;20.83;;;3.78;;
29002;SDS011;16102;57.138;-2.118;2022-10-26T15:10:35;8.05;;;2.28;;
29002;SDS011;16102;57.138;-2.118;2022-10-26T15:15:35;17.67;;;3.55;;
29002;SDS011;16102;57.138;-2.118;2022-10-26T15:18:05;10.52;;;2.45;;
29002;SDS011;16102;57.138;-2.118;2022-10-26T15:20:50;9.63;;;2.22;;
29002;SDS011;16102;57.138;-2.118;2022-10-26T15:23:19;14.38;;;3.28;;
29002;SDS011;16102;57.138;-2.118;2022-10-26T15:25:52;9.25;;;2.90;;
29002;SDS011;16102;57.138;-2.118;2022-10-26T15:28:22;9.63;;;3.42;;
29002;SDS011;16102;57.138;-2.118;2022-10-26T15:33:38;10.65;;;2.78;;
29002;SDS011;16102;57.138;-2.118;2022-10-26T15:36:10;8.32;;;2.03;;
29002;SDS011;16102;57.138;-2.118;2022-10-26T15:38:39;8.68;;;2.20;;
29002;SDS011;16102;57.138;-2.118;2022-10-26T15:43:59;7.75;;;1.77;;
29002;SDS011;16102;57.138;-2.118;2022-10-26T15:46:32;17.67;;;3.75;;
29002;SDS011;16102;57.138;-2.118;2022-10-26T15:49:02;6.28;;;1.95;;
29002;SDS011;16102;57.138;-2.118;2022-10-26T15:51:31;9.25;;;3.33;;
29002;SDS011;16102;57.138;-2.118;2022-10-26T15:54:02;14.63;;;3.10;;
29002;SDS011;16102;57.138;-2.118;2022-10-26T15:56:30;9.48;;;2.35;;
29002;SDS011;16102;57.138;-2.118;2022-10-26T15:58:57;10.93;;;2.83;;
29002;SDS011;16102;57.138;-2.118;2022-10-26T16:01:25;8.70;;;3.30;;
29002;SDS011;16102;57.138;-2.118;2022-10-26T16:03:54;12.32;;;2.80;;
29002;SDS011;16102;57.138;-2.118;2022-10-26T16:06:24;4.82;;;1.45;;
29002;SDS011;16102;57.138;-2.118;2022-10-26T16:08:52;7.53;;;3.10;;
29002;SDS011;16102;57.138;-2.118;2022-10-26T16:11:23;10.75;;;2.97;;
29002;SDS011;16102;57.138;-2.118;2022-10-26T16:13:51;10.98;;;2.72;;
29002;SDS011;16102;57.138;-2.118;2022-10-26T16:16:20;14.68;;;3.85;;
29002;SDS011;16102;57.138;-2.118;2022-10-26T16:18:50;8.90;;;2.22;;
29002;SDS011;16102;57.138;-2.118;2022-10-26T16:21:39;6.57;;;1.83;;
29002;SDS011;16102;57.138;-2.118;2022-10-26T16:24:08;11.35;;;3.03;;
29002;SDS011;16102;57.138;-2.118;2022-10-26T16:26:35;11.00;;;2.58;;
29002;SDS011;16102;57.138;-2.118;2022-10-26T16:29:02;12.63;;;2.63;;
29002;SDS011;16102;57.138;-2.118;2022-10-26T16:31:29;18.17;;;3.92;;
29002;SDS011;16102;57.138;-2.118;2022-10-26T16:33:57;8.50;;;2.63;;
29002;SDS011;16102;57.138;-2.118;2022-10-26T16:36:29;7.28;;;2.15;;
29002;SDS011;16102;57.138;-2.118;2022-10-26T16:38:59;7.97;;;2.00;;
29002;SDS011;16102;57.138;-2.118;2022-10-26T16:41:27;9.18;;;2.13;;
29002;SDS011;16102;57.138;-2.118;2022-10-26T16:43:54;13.05;;;2.65;;
29002;SDS011;16102;57.138;-2.118;2022-10-26T16:46:21;9.57;;;2.08;;
29002;SDS011;16102;57.138;-2.118;2022-10-26T16:48:49;9.55;;;1.55;;
29002;SDS011;16102;57.138;-2.118;2022-10-26T16:51:21;4.38;;;1.58;;
29002;SDS011;16102;57.138;-2.118;2022-10-26T16:53:53;6.10;;;2.20;;
29002;SDS011;16102;57.138;-2.118;2022-10-26T16:56:22;5.88;;;1.30;;
29002;SDS011;16102;57.138;-2.118;2022-10-26T16:58:52;5.97;;;1.50;;
29002;SDS011;16102;57.138;-2.118;2022-10-26T17:01:19;5.75;;;1.02;;
29002;SDS011;16102;57.138;-2.118;2022-10-26T17:03:48;5.38;;;1.55;;
29002;SDS011;16102;57.138;-2.118;2022-10-26T17:06:16;5.57;;;1.65;;
29002;SDS011;16102;57.138;-2.118;2022-10-26T17:08:44;5.72;;;1.88;;
29002;SDS011;16102;57.138;-2.118;2022-10-26T17:11:14;5.03;;;1.10;;
29002;SDS011;16102;57.138;-2.118;2022-10-26T17:13:43;7.32;;;1.27;;
29002;SDS011;16102;57.138;-2.118;2022-10-26T17:16:12;5.88;;;1.52;;
29002;SDS011;16102;57.138;-2.118;2022-10-26T17:18:41;4.82;;;1.38;;
29002;SDS011;16102;57.138;-2.118;2022-10-26T17:21:09;10.60;;;2.03;;
29002;SDS011;16102;57.138;-2.118;2022-10-26T17:23:38;6.75;;;1.73;;
29002;SDS011;16102;57.138;-2.118;2022-10-26T17:26:06;11.68;;;2.00;;